sensor_id;sensor_type;location;lat;lon;timestamp;P1;durP1;ratioP1;P2;durP2;ratioP2
45296;SDS011;31040;51.622;10.420;2023-02-01T00:01:37;9.40;;;2.90;;
45296;SDS011;31040;51.622;10.420;2023-02-01T00:04:04;8.82;;;2.47;;
45296;SDS011;31040;51.622;10.420;2023-02-01T00:06:31;9.07;;;3.38;;
45296;SDS011;31040;51.622;10.420;2023-02-01T00:08:59;13.07;;;2.92;;
45296;SDS011;31040;51.622;10.420;2023-02-01T00:11:26;9.18;;;2.83;;
45296;SDS011;31040;51.622;10.420;2023-02-01T00:13:53;9.35;;;2.83;;
45296;SDS011;31040;51.622;10.420;2023-02-01T00:16:25;13.45;;;4.32;;
45296;SDS011;31040;51.622;10.420;2023-02-01T00:18:56;14.65;;;3.20;;
45296;SDS011;31040;51.622;10.420;2023-02-01T00:21:24;14.35;;;2.95;;
45296;SDS011;31040;51.622;10.420;2023-02-01T00:23:52;13.05;;;3.72;;
45296;SDS011;31040;51.622;10.420;2023-02-01T00:26:21;16.15;;;3.92;;
45296;SDS011;31040;51.622;10.420;2023-02-01T00:28:49;8.98;;;2.58;;
45296;SDS011;31040;51.622;10.420;2023-02-01T00:31:17;15.02;;;4.03;;
45296;SDS011;31040;51.622;10.420;2023-02-01T00:33:46;12.73;;;3.00;;
45296;SDS011;31040;51.622;10.420;2023-02-01T00:36:13;11.10;;;3.90;;
45296;SDS011;31040;51.622;10.420;2023-02-01T00:38:41;12.90;;;3.83;;
45296;SDS011;31040;51.622;10.420;2023-02-01T00:41:12;14.85;;;3.30;;
45296;SDS011;31040;51.622;10.420;2023-02-01T00:43:39;6.65;;;2.95;;
45296;SDS011;31040;51.622;10.420;2023-02-01T00:46:07;10.50;;;3.70;;
45296;SDS011;31040;51.622;10.420;2023-02-01T00:48:34;10.18;;;2.70;;
45296;SDS011;31040;51.622;10.420;2023-02-01T00:51:02;9.68;;;3.25;;
45296;SDS011;31040;51.622;10.420;2023-02-01T00:53:30;8.43;;;2.92;;
45296;SDS011;31040;51.622;10.420;2023-02-01T00:55:58;10.57;;;3.67;;
45296;SDS011;31040;51.622;10.420;2023-02-01T00:58:25;13.38;;;3.60;;
45296;SDS011;31040;51.622;10.420;2023-02-01T01:01:03;10.32;;;2.78;;
45296;SDS011;31040;51.622;10.420;2023-02-01T01:03:32;12.57;;;3.58;;
45296;SDS011;31040;51.622;10.420;2023-02-01T01:06:00;8.65;;;2.63;;
45296;SDS011;31040;51.622;10.420;2023-02-01T01:08:28;12.73;;;3.92;;
45296;SDS011;31040;51.622;10.420;2023-02-01T01:10:55;15.48;;;3.30;;
45296;SDS011;31040;51.622;10.420;2023-02-01T01:13:23;8.30;;;4.00;;
45296;SDS011;31040;51.622;10.420;2023-02-01T01:15:50;10.35;;;3.40;;
45296;SDS011;31040;51.622;10.420;2023-02-01T01:18:17;14.23;;;3.42;;
45296;SDS011;31040;51.622;10.420;2023-02-01T01:20:47;11.65;;;4.25;;
45296;SDS011;31040;51.622;10.420;2023-02-01T01:23:14;11.60;;;3.08;;
45296;SDS011;31040;51.622;10.420;2023-02-01T01:25:42;14.52;;;4.15;;
45296;SDS011;31040;51.622;10.420;2023-02-01T01:28:09;12.07;;;3.53;;
45296;SDS011;31040;51.622;10.420;2023-02-01T01:30:36;12.05;;;3.13;;
45296;SDS011;31040;51.622;10.420;2023-02-01T01:33:04;8.85;;;2.92;;
45296;SDS011;31040;51.622;10.420;2023-02-01T01:35:34;10.98;;;2.90;;
45296;SDS011;31040;51.622;10.420;2023-02-01T01:38:01;10.18;;;4.35;;
45296;SDS011;31040;51.622;10.420;2023-02-01T01:40:29;12.13;;;3.22;;
45296;SDS011;31040;51.622;10.420;2023-02-01T01:42:57;9.10;;;2.95;;
45296;SDS011;31040;51.622;10.420;2023-02-01T01:45:25;11.20;;;3.33;;
45296;SDS011;31040;51.622;10.420;2023-02-01T01:47:54;15.13;;;4.28;;
45296;SDS011;31040;51.622;10.420;2023-02-01T01:50:29;12.80;;;3.03;;
45296;SDS011;31040;51.622;10.420;2023-02-01T01:52:58;7.63;;;3.00;;
45296;SDS011;31040;51.622;10.420;2023-02-01T01:55:26;11.57;;;3.05;;
45296;SDS011;31040;51.622;10.420;2023-02-01T01:57:59;14.60;;;3.80;;
45296;SDS011;31040;51.622;10.420;2023-02-01T02:00:27;20.52;;;5.03;;
45296;SDS011;31040;51.622;10.420;2023-02-01T02:02:56;11.35;;;3.45;;
45296;SDS011;31040;51.622;10.420;2023-02-01T02:05:25;11.85;;;4.53;;
45296;SDS011;31040;51.622;10.420;2023-02-01T02:07:53;9.18;;;3.22;;
45296;SDS011;31040;51.622;10.420;2023-02-01T02:10:21;12.40;;;4.05;;
45296;SDS011;31040;51.622;10.420;2023-02-01T02:13:08;12.00;;;3.45;;
45296;SDS011;31040;51.622;10.420;2023-02-01T02:15:36;15.57;;;3.28;;
45296;SDS011;31040;51.622;10.420;2023-02-01T02:18:06;14.63;;;4.70;;
45296;SDS011;31040;51.622;10.420;2023-02-01T02:50:28;15.50;;;4.45;;
45296;SDS011;31040;51.622;10.420;2023-02-01T02:53:20;10.60;;;4.20;;
45296;SDS011;31040;51.622;10.420;2023-02-01T02:56:07;17.58;;;5.00;;
45296;SDS011;31040;51.622;10.420;2023-02-01T02:58:55;12.35;;;4.07;;
45296;SDS011;31040;51.622;10.420;2023-02-01T03:01:41;16.48;;;4.95;;
45296;SDS011;31040;51.622;10.420;2023-02-01T03:04:27;9.68;;;3.65;;
45296;SDS011;31040;51.622;10.420;2023-02-01T03:06:55;10.50;;;4.13;;
45296;SDS011;31040;51.622;10.420;2023-02-01T03:11:49;21.95;;;5.68;;
45296;SDS011;31040;51.622;10.420;2023-02-01T03:14:37;10.88;;;2.58;;
45296;SDS011;31040;51.622;10.420;2023-02-01T03:17:08;13.07;;;3.65;;
45296;SDS011;31040;51.622;10.420;2023-02-01T03:19:40;10.07;;;3.38;;
45296;SDS011;31040;51.622;10.420;2023-02-01T03:22:15;14.52;;;3.55;;
45296;SDS011;31040;51.622;10.420;2023-02-01T03:24:44;10.63;;;3.65;;
45296;SDS011;31040;51.622;10.420;2023-02-01T03:27:24;10.43;;;3.47;;
45296;SDS011;31040;51.622;10.420;2023-02-01T03:32:27;10.43;;;3.22;;
45296;SDS011;31040;51.622;10.420;2023-02-01T03:34:54;13.55;;;3.08;;
45296;SDS011;31040;51.622;10.420;2023-02-01T03:37:23;11.95;;;3.40;;
45296;SDS011;31040;51.622;10.420;2023-02-01T03:42:21;14.88;;;3.10;;
45296;SDS011;31040;51.622;10.420;2023-02-01T03:44:54;10.00;;;3.03;;
45296;SDS011;31040;51.622;10.420;2023-02-01T03:47:25;17.63;;;3.33;;
45296;SDS011;31040;51.622;10.420;2023-02-01T03:49:54;11.02;;;2.95;;
45296;SDS011;31040;51.622;10.420;2023-02-01T03:52:23;12.48;;;3.35;;
45296;SDS011;31040;51.622;10.420;2023-02-01T03:54:52;7.22;;;3.10;;
45296;SDS011;31040;51.622;10.420;2023-02-01T03:57:22;9.50;;;3.13;;
45296;SDS011;31040;51.622;10.420;2023-02-01T03:59:51;11.77;;;3.20;;
45296;SDS011;31040;51.622;10.420;2023-02-01T04:02:18;10.32;;;3.80;;
45296;SDS011;31040;51.622;10.420;2023-02-01T04:04:45;14.60;;;3.50;;
45296;SDS011;31040;51.622;10.420;2023-02-01T04:07:13;13.68;;;3.72;;
45296;SDS011;31040;51.622;10.420;2023-02-01T04:09:40;10.77;;;3.58;;
45296;SDS011;31040;51.622;10.420;2023-02-01T04:12:08;13.55;;;3.35;;
45296;SDS011;31040;51.622;10.420;2023-02-01T04:14:35;15.13;;;3.70;;
45296;SDS011;31040;51.622;10.420;2023-02-01T04:17:02;14.88;;;3.97;;
45296;SDS011;31040;51.622;10.420;2023-02-01T04:19:30;14.70;;;3.67;;
45296;SDS011;31040;51.622;10.420;2023-02-01T04:21:57;12.63;;;3.58;;
45296;SDS011;31040;51.622;10.420;2023-02-01T04:24:24;12.45;;;5.25;;
45296;SDS011;31040;51.622;10.420;2023-02-01T04:26:51;10.25;;;3.65;;
45296;SDS011;31040;51.622;10.420;2023-02-01T04:29:19;11.63;;;4.25;;
45296;SDS011;31040;51.622;10.420;2023-02-01T04:31:46;12.70;;;5.60;;
45296;SDS011;31040;51.622;10.420;2023-02-01T04:34:13;12.65;;;3.78;;
45296;SDS011;31040;51.622;10.420;2023-02-01T04:36:41;12.70;;;3.58;;
45296;SDS011;31040;51.622;10.420;2023-02-01T04:39:12;16.95;;;5.35;;
45296;SDS011;31040;51.622;10.420;2023-02-01T04:41:39;9.93;;;3.92;;
45296;SDS011;31040;51.622;10.420;2023-02-01T04:44:08;11.65;;;4.07;;
45296;SDS011;31040;51.622;10.420;2023-02-01T04:46:39;13.48;;;3.50;;
45296;SDS011;31040;51.622;10.420;2023-02-01T04:49:08;13.30;;;4.07;;
45296;SDS011;31040;51.622;10.420;2023-02-01T04:51:35;9.82;;;3.72;;
45296;SDS011;31040;51.622;10.420;2023-02-01T04:54:03;11.50;;;3.63;;
45296;SDS011;31040;51.622;10.420;2023-02-01T04:56:30;15.93;;;4.70;;
45296;SDS011;31040;51.622;10.420;2023-02-01T04:58:58;8.63;;;3.65;;
45296;SDS011;31040;51.622;10.420;2023-02-01T05:01:25;10.45;;;3.72;;
45296;SDS011;31040;51.622;10.420;2023-02-01T05:03:52;9.68;;;4.05;;
45296;SDS011;31040;51.622;10.420;2023-02-01T05:06:20;14.50;;;4.40;;
45296;SDS011;31040;51.622;10.420;2023-02-01T05:08:48;10.68;;;3.40;;
45296;SDS011;31040;51.622;10.420;2023-02-01T05:11:15;17.17;;;3.97;;
45296;SDS011;31040;51.622;10.420;2023-02-01T05:16:28;12.48;;;3.45;;
45296;SDS011;31040;51.622;10.420;2023-02-01T05:18:55;11.90;;;4.53;;
45296;SDS011;31040;51.622;10.420;2023-02-01T05:21:22;11.57;;;3.40;;
45296;SDS011;31040;51.622;10.420;2023-02-01T05:23:50;15.30;;;3.92;;
45296;SDS011;31040;51.622;10.420;2023-02-01T05:29:03;9.52;;;3.45;;
45296;SDS011;31040;51.622;10.420;2023-02-01T05:31:30;9.40;;;3.42;;
45296;SDS011;31040;51.622;10.420;2023-02-01T05:33:58;9.95;;;3.05;;
45296;SDS011;31040;51.622;10.420;2023-02-01T05:36:25;7.90;;;3.50;;
45296;SDS011;31040;51.622;10.420;2023-02-01T05:38:52;8.13;;;3.10;;
45296;SDS011;31040;51.622;10.420;2023-02-01T05:41:20;14.57;;;4.18;;
45296;SDS011;31040;51.622;10.420;2023-02-01T05:43:47;15.57;;;6.13;;
45296;SDS011;31040;51.622;10.420;2023-02-01T05:46:14;16.00;;;5.65;;
45296;SDS011;31040;51.622;10.420;2023-02-01T05:48:42;10.93;;;4.45;;
45296;SDS011;31040;51.622;10.420;2023-02-01T05:51:10;11.18;;;3.80;;
45296;SDS011;31040;51.622;10.420;2023-02-01T05:53:38;9.48;;;3.85;;
45296;SDS011;31040;51.622;10.420;2023-02-01T05:56:05;12.55;;;3.75;;
45296;SDS011;31040;51.622;10.420;2023-02-01T05:58:32;9.85;;;3.90;;
45296;SDS011;31040;51.622;10.420;2023-02-01T06:01:00;10.10;;;4.25;;
45296;SDS011;31040;51.622;10.420;2023-02-01T06:03:27;12.07;;;4.15;;
45296;SDS011;31040;51.622;10.420;2023-02-01T06:05:55;13.57;;;3.75;;
45296;SDS011;31040;51.622;10.420;2023-02-01T06:08:22;10.27;;;4.63;;
45296;SDS011;31040;51.622;10.420;2023-02-01T06:10:57;13.23;;;4.20;;
45296;SDS011;31040;51.622;10.420;2023-02-01T06:13:24;9.30;;;4.22;;
45296;SDS011;31040;51.622;10.420;2023-02-01T06:15:51;12.70;;;4.32;;
45296;SDS011;31040;51.622;10.420;2023-02-01T06:18:19;11.55;;;5.35;;
45296;SDS011;31040;51.622;10.420;2023-02-01T06:20:51;12.48;;;4.55;;
45296;SDS011;31040;51.622;10.420;2023-02-01T06:23:19;10.40;;;4.07;;
45296;SDS011;31040;51.622;10.420;2023-02-01T06:25:53;10.35;;;3.90;;
45296;SDS011;31040;51.622;10.420;2023-02-01T06:28:25;6.97;;;4.15;;
45296;SDS011;31040;51.622;10.420;2023-02-01T06:30:52;10.55;;;4.05;;
45296;SDS011;31040;51.622;10.420;2023-02-01T06:33:20;8.15;;;3.72;;
45296;SDS011;31040;51.622;10.420;2023-02-01T06:35:47;14.00;;;5.00;;
45296;SDS011;31040;51.622;10.420;2023-02-01T06:38:14;12.15;;;4.65;;
45296;SDS011;31040;51.622;10.420;2023-02-01T06:40:42;7.53;;;3.90;;
45296;SDS011;31040;51.622;10.420;2023-02-01T06:43:09;9.98;;;4.30;;
45296;SDS011;31040;51.622;10.420;2023-02-01T06:45:37;9.18;;;4.60;;
45296;SDS011;31040;51.622;10.420;2023-02-01T06:48:04;10.80;;;5.05;;
45296;SDS011;31040;51.622;10.420;2023-02-01T06:50:32;8.32;;;4.07;;
45296;SDS011;31040;51.622;10.420;2023-02-01T06:53:01;8.63;;;5.05;;
45296;SDS011;31040;51.622;10.420;2023-02-01T06:55:28;11.38;;;4.95;;
45296;SDS011;31040;51.622;10.420;2023-02-01T06:57:55;12.10;;;4.38;;
45296;SDS011;31040;51.622;10.420;2023-02-01T07:00:23;10.50;;;4.18;;
45296;SDS011;31040;51.622;10.420;2023-02-01T07:02:51;9.27;;;5.10;;
45296;SDS011;31040;51.622;10.420;2023-02-01T07:05:18;14.23;;;5.38;;
45296;SDS011;31040;51.622;10.420;2023-02-01T07:07:45;14.15;;;5.60;;
45296;SDS011;31040;51.622;10.420;2023-02-01T07:10:13;13.10;;;5.43;;
45296;SDS011;31040;51.622;10.420;2023-02-01T07:12:40;12.20;;;5.97;;
45296;SDS011;31040;51.622;10.420;2023-02-01T07:15:07;11.15;;;5.88;;
45296;SDS011;31040;51.622;10.420;2023-02-01T07:17:34;10.32;;;5.30;;
45296;SDS011;31040;51.622;10.420;2023-02-01T07:20:02;13.07;;;5.20;;
45296;SDS011;31040;51.622;10.420;2023-02-01T07:22:30;9.50;;;5.32;;
45296;SDS011;31040;51.622;10.420;2023-02-01T07:24:57;10.68;;;4.90;;
45296;SDS011;31040;51.622;10.420;2023-02-01T07:27:24;17.63;;;5.45;;
45296;SDS011;31040;51.622;10.420;2023-02-01T07:29:52;12.20;;;5.50;;
45296;SDS011;31040;51.622;10.420;2023-02-01T07:32:21;9.23;;;5.60;;
45296;SDS011;31040;51.622;10.420;2023-02-01T07:34:49;11.57;;;7.07;;
45296;SDS011;31040;51.622;10.420;2023-02-01T07:37:16;14.75;;;7.80;;
45296;SDS011;31040;51.622;10.420;2023-02-01T07:39:44;14.60;;;5.35;;
45296;SDS011;31040;51.622;10.420;2023-02-01T07:42:11;12.25;;;5.88;;
45296;SDS011;31040;51.622;10.420;2023-02-01T07:44:38;14.48;;;7.10;;
45296;SDS011;31040;51.622;10.420;2023-02-01T07:47:06;14.93;;;7.05;;
45296;SDS011;31040;51.622;10.420;2023-02-01T07:49:33;10.60;;;6.13;;
45296;SDS011;31040;51.622;10.420;2023-02-01T07:52:00;16.23;;;7.93;;
45296;SDS011;31040;51.622;10.420;2023-02-01T07:54:28;13.82;;;5.82;;
45296;SDS011;31040;51.622;10.420;2023-02-01T07:56:55;11.82;;;6.78;;
45296;SDS011;31040;51.622;10.420;2023-02-01T07:59:23;19.70;;;7.40;;
45296;SDS011;31040;51.622;10.420;2023-02-01T08:01:50;15.93;;;7.00;;
45296;SDS011;31040;51.622;10.420;2023-02-01T08:04:17;13.55;;;5.75;;
45296;SDS011;31040;51.622;10.420;2023-02-01T08:06:45;12.02;;;6.07;;
45296;SDS011;31040;51.622;10.420;2023-02-01T08:09:12;13.43;;;6.28;;
45296;SDS011;31040;51.622;10.420;2023-02-01T08:11:39;15.77;;;5.60;;
45296;SDS011;31040;51.622;10.420;2023-02-01T08:14:07;10.23;;;6.13;;
45296;SDS011;31040;51.622;10.420;2023-02-01T08:16:34;16.02;;;6.00;;
45296;SDS011;31040;51.622;10.420;2023-02-01T08:19:03;15.30;;;5.80;;
45296;SDS011;31040;51.622;10.420;2023-02-01T08:21:30;8.48;;;5.88;;
45296;SDS011;31040;51.622;10.420;2023-02-01T08:24:05;16.88;;;5.72;;
45296;SDS011;31040;51.622;10.420;2023-02-01T08:26:32;14.75;;;5.35;;
45296;SDS011;31040;51.622;10.420;2023-02-01T08:29:00;10.15;;;4.90;;
45296;SDS011;31040;51.622;10.420;2023-02-01T08:31:29;11.90;;;5.32;;
45296;SDS011;31040;51.622;10.420;2023-02-01T08:33:58;8.10;;;4.57;;
45296;SDS011;31040;51.622;10.420;2023-02-01T08:36:26;14.73;;;5.13;;
45296;SDS011;31040;51.622;10.420;2023-02-01T08:38:54;15.65;;;4.57;;
45296;SDS011;31040;51.622;10.420;2023-02-01T08:41:22;13.27;;;5.15;;
45296;SDS011;31040;51.622;10.420;2023-02-01T08:43:50;8.75;;;3.67;;
45296;SDS011;31040;51.622;10.420;2023-02-01T08:46:17;10.80;;;3.92;;
45296;SDS011;31040;51.622;10.420;2023-02-01T08:48:45;8.35;;;4.28;;
45296;SDS011;31040;51.622;10.420;2023-02-01T08:51:13;15.43;;;5.03;;
45296;SDS011;31040;51.622;10.420;2023-02-01T08:53:41;10.98;;;4.10;;
45296;SDS011;31040;51.622;10.420;2023-02-01T08:56:10;12.80;;;5.32;;
45296;SDS011;31040;51.622;10.420;2023-02-01T08:58:37;9.20;;;3.45;;
45296;SDS011;31040;51.622;10.420;2023-02-01T09:01:05;9.90;;;3.28;;
45296;SDS011;31040;51.622;10.420;2023-02-01T09:03:33;12.40;;;4.50;;
45296;SDS011;31040;51.622;10.420;2023-02-01T09:06:01;12.45;;;3.60;;
45296;SDS011;31040;51.622;10.420;2023-02-01T09:08:28;14.30;;;5.20;;
45296;SDS011;31040;51.622;10.420;2023-02-01T09:11:00;10.95;;;4.18;;
45296;SDS011;31040;51.622;10.420;2023-02-01T09:13:28;13.88;;;5.07;;
45296;SDS011;31040;51.622;10.420;2023-02-01T09:15:56;11.90;;;4.15;;
45296;SDS011;31040;51.622;10.420;2023-02-01T09:18:26;11.70;;;3.65;;
45296;SDS011;31040;51.622;10.420;2023-02-01T09:20:53;13.85;;;3.85;;
45296;SDS011;31040;51.622;10.420;2023-02-01T09:23:20;12.20;;;3.42;;
45296;SDS011;31040;51.622;10.420;2023-02-01T09:25:48;11.95;;;3.33;;
45296;SDS011;31040;51.622;10.420;2023-02-01T09:28:18;6.75;;;3.17;;
45296;SDS011;31040;51.622;10.420;2023-02-01T09:30:45;11.55;;;4.53;;
45296;SDS011;31040;51.622;10.420;2023-02-01T09:33:13;9.23;;;3.50;;
45296;SDS011;31040;51.622;10.420;2023-02-01T09:35:40;15.73;;;3.95;;
45296;SDS011;31040;51.622;10.420;2023-02-01T09:38:07;9.15;;;3.22;;
45296;SDS011;31040;51.622;10.420;2023-02-01T09:40:35;9.68;;;4.55;;
45296;SDS011;31040;51.622;10.420;2023-02-01T09:46:26;9.65;;;3.60;;
45296;SDS011;31040;51.622;10.420;2023-02-01T09:48:33;10.93;;;3.88;;
45296;SDS011;31040;51.622;10.420;2023-02-01T09:51:02;7.95;;;3.47;;
45296;SDS011;31040;51.622;10.420;2023-02-01T09:53:35;13.55;;;4.15;;
45296;SDS011;31040;51.622;10.420;2023-02-01T09:56:07;19.55;;;5.40;;
45296;SDS011;31040;51.622;10.420;2023-02-01T10:01:08;10.35;;;4.53;;
45296;SDS011;31040;51.622;10.420;2023-02-01T10:03:37;10.75;;;4.47;;
45296;SDS011;31040;51.622;10.420;2023-02-01T10:06:09;6.63;;;4.03;;
45296;SDS011;31040;51.622;10.420;2023-02-01T10:11:25;9.70;;;4.93;;
45296;SDS011;31040;51.622;10.420;2023-02-01T10:14:09;11.18;;;4.30;;
45296;SDS011;31040;51.622;10.420;2023-02-01T10:22:02;11.52;;;3.95;;
45296;SDS011;31040;51.622;10.420;2023-02-01T10:29:45;10.65;;;4.60;;
45296;SDS011;31040;51.622;10.420;2023-02-01T10:32:15;8.07;;;3.80;;
45296;SDS011;31040;51.622;10.420;2023-02-01T10:34:44;10.25;;;4.53;;
45296;SDS011;31040;51.622;10.420;2023-02-01T10:39:46;19.15;;;5.57;;
45296;SDS011;31040;51.622;10.420;2023-02-01T10:42:16;9.88;;;5.05;;
45296;SDS011;31040;51.622;10.420;2023-02-01T10:44:44;14.43;;;5.68;;
45296;SDS011;31040;51.622;10.420;2023-02-01T10:47:14;7.75;;;4.55;;
45296;SDS011;31040;51.622;10.420;2023-02-01T10:52:46;10.43;;;4.18;;
45296;SDS011;31040;51.622;10.420;2023-02-01T10:55:35;14.95;;;4.10;;
45296;SDS011;31040;51.622;10.420;2023-02-01T10:58:07;9.13;;;5.07;;
45296;SDS011;31040;51.622;10.420;2023-02-01T11:06:01;9.43;;;3.88;;
45296;SDS011;31040;51.622;10.420;2023-02-01T11:08:29;8.75;;;3.75;;
45296;SDS011;31040;51.622;10.420;2023-02-01T11:10:58;11.00;;;5.00;;
45296;SDS011;31040;51.622;10.420;2023-02-01T11:13:30;10.82;;;4.53;;
45296;SDS011;31040;51.622;10.420;2023-02-01T11:15:58;12.57;;;5.30;;
45296;SDS011;31040;51.622;10.420;2023-02-01T11:18:29;10.10;;;4.63;;
45296;SDS011;31040;51.622;10.420;2023-02-01T11:20:57;10.27;;;4.32;;
45296;SDS011;31040;51.622;10.420;2023-02-01T11:23:26;13.43;;;4.95;;
45296;SDS011;31040;51.622;10.420;2023-02-01T11:25:58;10.50;;;4.22;;
45296;SDS011;31040;51.622;10.420;2023-02-01T11:28:29;13.70;;;5.32;;
45296;SDS011;31040;51.622;10.420;2023-02-01T11:30:59;16.63;;;4.47;;
45296;SDS011;31040;51.622;10.420;2023-02-01T11:33:28;9.38;;;3.78;;
45296;SDS011;31040;51.622;10.420;2023-02-01T11:35:57;11.73;;;3.97;;
45296;SDS011;31040;51.622;10.420;2023-02-01T11:38:26;8.30;;;4.00;;
45296;SDS011;31040;51.622;10.420;2023-02-01T11:40:54;11.25;;;3.35;;
45296;SDS011;31040;51.622;10.420;2023-02-01T11:43:26;7.68;;;3.05;;
45296;SDS011;31040;51.622;10.420;2023-02-01T11:45:54;8.88;;;3.83;;
45296;SDS011;31040;51.622;10.420;2023-02-01T11:48:23;11.27;;;3.58;;
45296;SDS011;31040;51.622;10.420;2023-02-01T12:16:37;11.40;;;5.22;;
45296;SDS011;31040;51.622;10.420;2023-02-01T12:19:19;14.48;;;4.30;;
45296;SDS011;31040;51.622;10.420;2023-02-01T12:21:53;11.55;;;5.05;;
45296;SDS011;31040;51.622;10.420;2023-02-01T12:27:06;9.95;;;4.03;;
45296;SDS011;31040;51.622;10.420;2023-02-01T12:40:56;9.27;;;4.22;;
45296;SDS011;31040;51.622;10.420;2023-02-01T12:48:33;10.20;;;3.70;;
45296;SDS011;31040;51.622;10.420;2023-02-01T12:51:03;9.18;;;3.80;;
45296;SDS011;31040;51.622;10.420;2023-02-01T12:53:42;7.90;;;3.40;;
45296;SDS011;31040;51.622;10.420;2023-02-01T12:56:21;12.23;;;3.90;;
45296;SDS011;31040;51.622;10.420;2023-02-01T12:58:51;6.70;;;3.65;;
45296;SDS011;31040;51.622;10.420;2023-02-01T13:09:08;7.57;;;3.92;;
45296;SDS011;31040;51.622;10.420;2023-02-01T13:11:37;10.40;;;3.80;;
45296;SDS011;31040;51.622;10.420;2023-02-01T13:16:45;11.45;;;5.50;;
45296;SDS011;31040;51.622;10.420;2023-02-01T13:21:43;6.75;;;3.95;;
45296;SDS011;31040;51.622;10.420;2023-02-01T13:26:55;16.08;;;4.07;;
45296;SDS011;31040;51.622;10.420;2023-02-01T13:29:23;15.10;;;4.45;;
45296;SDS011;31040;51.622;10.420;2023-02-01T13:37:18;11.48;;;4.03;;
45296;SDS011;31040;51.622;10.420;2023-02-01T13:45:05;6.97;;;3.60;;
45296;SDS011;31040;51.622;10.420;2023-02-01T13:47:42;9.52;;;4.35;;
45296;SDS011;31040;51.622;10.420;2023-02-01T13:58:10;7.27;;;2.97;;
45296;SDS011;31040;51.622;10.420;2023-02-01T14:00:40;8.25;;;3.40;;
45296;SDS011;31040;51.622;10.420;2023-02-01T14:03:13;7.60;;;3.65;;
45296;SDS011;31040;51.622;10.420;2023-02-01T14:08:10;6.20;;;3.20;;
45296;SDS011;31040;51.622;10.420;2023-02-01T14:31:52;8.60;;;3.58;;
45296;SDS011;31040;51.622;10.420;2023-02-01T14:34:35;9.65;;;3.70;;
45296;SDS011;31040;51.622;10.420;2023-02-01T14:47:45;8.93;;;3.40;;
45296;SDS011;31040;51.622;10.420;2023-02-01T14:52:46;6.10;;;3.50;;
45296;SDS011;31040;51.622;10.420;2023-02-01T14:57:41;5.65;;;3.42;;
45296;SDS011;31040;51.622;10.420;2023-02-01T15:00:21;6.05;;;3.35;;
45296;SDS011;31040;51.622;10.420;2023-02-01T15:02:49;4.95;;;2.78;;
45296;SDS011;31040;51.622;10.420;2023-02-01T15:05:31;6.22;;;3.47;;
45296;SDS011;31040;51.622;10.420;2023-02-01T15:08:07;5.55;;;3.50;;
45296;SDS011;31040;51.622;10.420;2023-02-01T15:10:41;6.15;;;3.28;;
45296;SDS011;31040;51.622;10.420;2023-02-01T15:13:23;6.45;;;3.28;;
45296;SDS011;31040;51.622;10.420;2023-02-01T15:18:37;7.13;;;3.90;;
45296;SDS011;31040;51.622;10.420;2023-02-01T15:21:05;8.43;;;4.20;;
45296;SDS011;31040;51.622;10.420;2023-02-01T15:24:09;3.38;;;1.20;;
45296;SDS011;31040;51.622;10.420;2023-02-01T15:26:36;1.63;;;1.20;;
45296;SDS011;31040;51.622;10.420;2023-02-01T15:29:13;4.72;;;1.75;;
45296;SDS011;31040;51.622;10.420;2023-02-01T15:34:09;4.13;;;1.10;;
45296;SDS011;31040;51.622;10.420;2023-02-01T15:36:36;1.20;;;0.90;;
45296;SDS011;31040;51.622;10.420;2023-02-01T15:41:48;1.13;;;1.02;;
45296;SDS011;31040;51.622;10.420;2023-02-01T15:46:48;1.45;;;0.85;;
45296;SDS011;31040;51.622;10.420;2023-02-01T15:49:20;1.75;;;1.55;;
45296;SDS011;31040;51.622;10.420;2023-02-01T15:51:50;1.00;;;0.90;;
45296;SDS011;31040;51.622;10.420;2023-02-01T15:54:26;6.32;;;1.77;;
45296;SDS011;31040;51.622;10.420;2023-02-01T15:56:54;8.13;;;1.70;;
45296;SDS011;31040;51.622;10.420;2023-02-01T15:59:28;0.75;;;0.55;;
45296;SDS011;31040;51.622;10.420;2023-02-01T16:01:56;0.93;;;0.80;;
45296;SDS011;31040;51.622;10.420;2023-02-01T16:04:25;1.02;;;0.90;;
45296;SDS011;31040;51.622;10.420;2023-02-01T16:06:53;2.63;;;1.02;;
45296;SDS011;31040;51.622;10.420;2023-02-01T16:09:22;1.10;;;1.00;;
45296;SDS011;31040;51.622;10.420;2023-02-01T16:14:21;2.53;;;1.10;;
45296;SDS011;31040;51.622;10.420;2023-02-01T16:16:48;2.13;;;1.38;;
45296;SDS011;31040;51.622;10.420;2023-02-01T16:19:16;2.50;;;1.25;;
45296;SDS011;31040;51.622;10.420;2023-02-01T16:21:43;1.83;;;0.95;;
45296;SDS011;31040;51.622;10.420;2023-02-01T16:24:11;13.38;;;2.80;;
45296;SDS011;31040;51.622;10.420;2023-02-01T16:26:39;5.00;;;1.42;;
45296;SDS011;31040;51.622;10.420;2023-02-01T16:29:06;2.08;;;1.50;;
45296;SDS011;31040;51.622;10.420;2023-02-01T16:31:35;1.98;;;1.40;;
45296;SDS011;31040;51.622;10.420;2023-02-01T16:34:03;2.67;;;1.35;;
45296;SDS011;31040;51.622;10.420;2023-02-01T16:39:00;6.95;;;1.92;;
45296;SDS011;31040;51.622;10.420;2023-02-01T16:41:29;20.60;;;4.88;;
45296;SDS011;31040;51.622;10.420;2023-02-01T16:43:56;3.08;;;1.83;;
45296;SDS011;31040;51.622;10.420;2023-02-01T16:46:24;3.28;;;2.25;;
45296;SDS011;31040;51.622;10.420;2023-02-01T16:48:55;3.58;;;2.47;;
45296;SDS011;31040;51.622;10.420;2023-02-01T16:51:24;4.63;;;2.05;;
45296;SDS011;31040;51.622;10.420;2023-02-01T16:53:51;3.25;;;2.65;;
45296;SDS011;31040;51.622;10.420;2023-02-01T16:56:21;11.68;;;6.35;;
45296;SDS011;31040;51.622;10.420;2023-02-01T16:58:49;10.10;;;6.05;;
45296;SDS011;31040;51.622;10.420;2023-02-01T17:01:17;8.15;;;4.40;;
45296;SDS011;31040;51.622;10.420;2023-02-01T17:03:45;4.07;;;1.83;;
45296;SDS011;31040;51.622;10.420;2023-02-01T17:06:13;2.85;;;1.58;;
45296;SDS011;31040;51.622;10.420;2023-02-01T17:08:42;1.73;;;0.95;;
45296;SDS011;31040;51.622;10.420;2023-02-01T17:11:11;2.42;;;1.70;;
45296;SDS011;31040;51.622;10.420;2023-02-01T17:13:39;2.35;;;1.30;;
45296;SDS011;31040;51.622;10.420;2023-02-01T17:18:40;2.05;;;1.58;;
45296;SDS011;31040;51.622;10.420;2023-02-01T17:21:08;6.30;;;2.13;;
45296;SDS011;31040;51.622;10.420;2023-02-01T17:23:36;4.30;;;1.80;;
45296;SDS011;31040;51.622;10.420;2023-02-01T17:26:03;2.00;;;1.70;;
45296;SDS011;31040;51.622;10.420;2023-02-01T17:28:31;2.97;;;1.50;;
45296;SDS011;31040;51.622;10.420;2023-02-01T17:30:58;4.05;;;1.05;;
45296;SDS011;31040;51.622;10.420;2023-02-01T17:35:53;3.25;;;0.77;;
45296;SDS011;31040;51.622;10.420;2023-02-01T17:38:21;7.90;;;1.70;;
45296;SDS011;31040;51.622;10.420;2023-02-01T17:40:49;4.45;;;1.35;;
45296;SDS011;31040;51.622;10.420;2023-02-01T17:43:19;7.07;;;1.60;;
45296;SDS011;31040;51.622;10.420;2023-02-01T17:48:33;7.75;;;1.92;;
45296;SDS011;31040;51.622;10.420;2023-02-01T17:51:00;4.63;;;2.20;;
45296;SDS011;31040;51.622;10.420;2023-02-01T17:53:28;4.80;;;2.58;;
45296;SDS011;31040;51.622;10.420;2023-02-01T17:55:55;4.00;;;2.17;;
45296;SDS011;31040;51.622;10.420;2023-02-01T17:58:23;4.45;;;2.53;;
45296;SDS011;31040;51.622;10.420;2023-02-01T18:00:51;2.53;;;1.80;;
45296;SDS011;31040;51.622;10.420;2023-02-01T18:05:50;5.00;;;2.00;;
45296;SDS011;31040;51.622;10.420;2023-02-01T18:08:19;4.47;;;1.50;;
45296;SDS011;31040;51.622;10.420;2023-02-01T18:10:48;2.50;;;1.67;;
45296;SDS011;31040;51.622;10.420;2023-02-01T18:13:15;2.35;;;1.63;;
45296;SDS011;31040;51.622;10.420;2023-02-01T18:15:43;3.53;;;1.90;;